KLAA/LAA METAR and TAF weather

Enter ICAO airport designator
Station Type Date Time Source
KLAA METAR 2022/01/29 00:53 UTC NOAA

KLAA 290053Z AUTO 21008KT 10SM CLR 01/M07 A3033 RMK AO2 SLP300 T00061072


Station Type Date Time Source
KLAA Decoded METAR 2022/01/29 00:53 UTC NOAA

LAMAR MUNICIPAL AIRPORT, CO, United States (KLAA) 38-04N 102-41W 1119M
Jan 28, 2022 - 07:53 PM EST / 2022.01.29 0053 UTC
Wind: from the SSW (210 degrees) at 9 MPH (8 KT):0
Visibility: 10 mile(s):0
Sky conditions: clear
Temperature: 33.1 F (0.6 C)
Windchill: 24 F (-4 C):1
Dew Point: 19.0 F (-7.2 C)
Relative Humidity: 55%
Pressure (altimeter): 30.33 in. Hg (1027 hPa)
ob: KLAA 290053Z AUTO 21008KT 10SM CLR 01/M07 A3033 RMK AO2 SLP300 T00061072
cycle: 1

Station Type Date Time Source
KLAA TAF UTC NOAA

Error!

Example: see airport list